Time;durP1;ratioP1;P1;durP2;ratioP2;P2;SDS_P1;SDS_P2;PMS_P1;PMS_P2;Temp;Humidity;BMP_temperature;BMP_pressure;BME280_temperature;BME280_humidity;BME280_pressure;Samples;Min_cycle;Max_cycle;Signal;HPM_P1;HPM_P2
2023/02/27 00:00:19;;;;;;;;;;;-1.70;99.90;;;-2.65;100.00;98128.81;5039954;28;19990;-65
2023/02/27 00:02:48;;;;;;;;;;;-1.80;99.90;;;-2.71;100.00;98134.66;5037063;28;19935;-64
2023/02/27 00:05:15;;;;;;;;;;;-1.80;99.90;;;-2.72;100.00;98137.16;5038830;28;19932;-65
2023/02/27 00:07:42;;;;;;;;;;;-1.80;99.90;;;-2.68;100.00;98124.53;5039567;28;19932;-65
2023/02/27 00:10:11;;;;;;;;;;;-1.80;99.90;;;-2.69;100.00;98130.47;5042701;28;20400;-65
2023/02/27 00:12:38;;;;;;;;;;;-1.80;99.90;;;-2.72;100.00;98130.38;5035097;28;20451;-65
2023/02/27 00:15:10;;;;;;;;;;;-1.80;99.90;;;-2.69;100.00;98140.63;5040983;28;19929;-65
2023/02/27 00:17:37;;;;;;;;;;;-1.80;99.90;;;-2.68;100.00;98128.78;5023303;28;20019;-64
2023/02/27 00:20:06;;;;;;;;;;;-1.80;99.90;;;-2.69;100.00;98125.38;5040458;28;19936;-65
2023/02/27 00:22:33;;;;;;;;;;;-1.80;99.90;;;-2.73;100.00;98121.06;5038808;28;19928;-65
2023/02/27 00:25:00;;;;;;;;;;;-1.80;99.90;;;-2.69;100.00;98127.91;5037377;28;19936;-65
2023/02/27 00:27:27;;;;;;;;;;;-1.80;99.90;;;-2.78;100.00;98126.06;5039965;28;19936;-64
2023/02/27 00:29:53;;;;;;;;;;;-1.80;99.90;;;-2.79;100.00;98123.47;5038200;28;19929;-65
2023/02/27 00:32:20;;;;;;;;;;;-1.90;99.90;;;-2.81;100.00;98127.66;5042783;28;19944;-65
2023/02/27 00:34:48;;;;;;;;;;;-1.90;99.90;;;-2.75;100.00;98126.09;5038778;28;19935;-65
2023/02/27 00:37:15;;;;;;;;;;;-1.90;99.90;;;-2.77;100.00;98131.97;5037911;28;19933;-65
2023/02/27 00:39:42;;;;;;;;;;;-1.90;99.90;;;-2.80;100.00;98119.25;5037913;28;21387;-65
2023/02/27 00:42:09;;;;;;;;;;;-1.90;99.90;;;-2.84;100.00;98125.06;5039313;28;19924;-65
2023/02/27 00:44:37;;;;;;;;;;;-2.00;99.90;;;-2.87;100.00;98130.97;5041040;28;20464;-65
2023/02/27 00:47:04;;;;;;;;;;;-2.00;99.90;;;-2.81;100.00;98128.53;5041404;28;20321;-65
2023/02/27 00:49:30;;;;;;;;;;;-2.00;99.90;;;-2.86;100.00;98131.81;5039998;28;19926;-65
2023/02/27 00:51:57;;;;;;;;;;;-2.00;99.90;;;-2.88;100.00;98130.91;5040311;28;19929;-65
2023/02/27 00:54:24;;;;;;;;;;;-2.00;99.90;;;-2.89;100.00;98130.06;5027628;28;20352;-64
2023/02/27 00:56:51;;;;;;;;;;;-1.90;99.90;;;-2.94;100.00;98129.13;5041390;28;20268;-65
2023/02/27 00:59:18;;;;;;;;;;;-2.00;99.90;;;-2.95;100.00;98133.34;5042072;28;20430;-65
2023/02/27 01:01:45;;;;;;;;;;;-2.10;99.90;;;-2.90;100.00;98135.13;5039289;28;19928;-65
2023/02/27 01:04:12;;;;;;;;;;;-2.00;99.90;;;-2.91;100.00;98131.72;5040343;28;20020;-65
2023/02/27 01:06:39;;;;;;;;;;;-2.10;99.90;;;-2.99;100.00;98125.63;5042285;28;19975;-64
2023/02/27 01:09:06;;;;;;;;;;;-2.10;99.90;;;-3.01;100.00;98127.28;5040881;28;19929;-65
2023/02/27 01:11:33;;;;;;;;;;;-2.10;99.90;;;-2.99;100.00;98133.25;5044782;28;19929;-65
2023/02/27 01:14:00;;;;;;;;;;;-2.10;99.90;;;-3.06;100.00;98126.34;5039094;28;20287;-65
2023/02/27 01:16:27;;;;;;;;;;;-2.20;99.90;;;-3.01;100.00;98129.81;5035479;28;19952;-65
2023/02/27 01:18:53;;;;;;;;;;;-2.10;99.90;;;-3.03;100.00;98127.25;5037955;28;19937;-66
2023/02/27 01:21:20;;;;;;;;;;;-2.10;99.90;;;-3.05;100.00;98125.53;5040686;28;19925;-65
2023/02/27 01:23:47;;;;;;;;;;;-2.10;99.90;;;-3.02;100.00;98128.13;5039393;28;20272;-66
2023/02/27 01:26:14;;;;;;;;;;;-2.10;99.90;;;-3.08;100.00;98135.59;5036398;28;19924;-65
2023/02/27 01:28:41;;;;;;;;;;;-2.20;99.90;;;-3.05;100.00;98135.69;5039282;28;20044;-65
2023/02/27 01:31:08;;;;;;;;;;;-2.20;99.90;;;-3.07;100.00;98125.47;5039075;28;19925;-64
2023/02/27 01:33:35;;;;;;;;;;;-2.20;99.90;;;-3.06;100.00;98126.34;5037863;28;19929;-64
2023/02/27 01:36:01;;;;;;;;;;;-2.20;99.90;;;-3.08;100.00;98125.44;5038092;28;19947;-65
2023/02/27 01:38:28;;;;;;;;;;;-2.20;99.90;;;-3.10;100.00;98132.16;5039925;28;19951;-64
2023/02/27 01:40:56;;;;;;;;;;;-2.20;99.90;;;-3.10;100.00;98120.34;5040564;28;20016;-64
2023/02/27 01:43:23;;;;;;;;;;;-2.20;99.90;;;-3.09;100.00;98127.13;5038648;28;19924;-65
2023/02/27 01:45:50;;;;;;;;;;;-2.20;99.90;;;-3.09;100.00;98131.34;5043879;28;20027;-65
2023/02/27 01:48:32;;;;;;;;;;;-2.30;99.90;;;-3.08;100.00;98123.78;5038621;28;20030;-65
2023/02/27 01:51:20;;;;;;;;;;;-2.30;99.90;;;-3.13;100.00;98124.50;5037613;28;19929;-65
2023/02/27 01:53:49;;;;;;;;;;;-2.20;99.90;;;-3.19;100.00;98122.72;5041917;28;19935;-65
2023/02/27 01:56:21;;;;;;;;;;;-2.20;99.90;;;-3.12;100.00;98122.00;5038179;28;19933;-65
2023/02/27 01:58:50;;;;;;;;;;;-2.20;99.90;;;-3.14;100.00;98128.72;5042190;28;19932;-65
2023/02/27 02:01:18;;;;;;;;;;;-2.20;99.90;;;-3.18;100.00;98121.88;5038524;28;19929;-64
2023/02/27 02:03:55;;;;;;;;;;;-2.30;99.90;;;-3.11;100.00;98126.25;5036242;28;19995;-65
2023/02/27 02:06:22;;;;;;;;;;;-2.30;99.90;;;-3.16;100.00;98121.06;5036911;28;19932;-65
2023/02/27 02:08:50;;;;;;;;;;;-2.30;99.90;;;-3.18;100.00;98122.72;5040082;28;19944;-65
2023/02/27 02:11:19;;;;;;;;;;;-2.30;99.90;;;-3.19;100.00;98120.16;5034589;28;19929;-65
2023/02/27 02:13:48;;;;;;;;;;;-2.30;99.90;;;-3.22;100.00;98126.00;5028654;28;19929;-65
2023/02/27 02:16:31;;;;;;;;;;;-2.30;99.90;;;-3.28;100.00;98130.13;5043734;28;19936;-65
2023/02/27 02:19:32;;;;;;;;;;;-2.30;99.90;;;-3.31;100.00;98120.75;5040307;28;20379;-64
2023/02/27 02:22:12;;;;;;;;;;;-2.30;99.90;;;-3.32;100.00;98126.66;5041850;28;19929;-65
2023/02/27 02:25:09;;;;;;;;;;;-2.40;99.90;;;-3.29;100.00;98119.09;5041805;28;19928;-65
2023/02/27 02:27:42;;;;;;;;;;;-2.40;99.90;;;-3.30;100.00;98117.41;5051589;28;20239;-65
2023/02/27 02:30:21;;;;;;;;;;;-2.40;99.90;;;-3.38;100.00;98117.22;5046100;28;19968;-65
2023/02/27 02:33:18;;;;;;;;;;;-2.40;99.90;;;-3.26;100.00;98114.09;5038058;28;20005;-64
2023/02/27 02:36:16;;;;;;;;;;;-2.40;99.90;;;-3.35;100.00;98121.53;5039772;28;19925;-64
2023/02/27 02:38:49;;;;;;;;;;;-2.50;99.90;;;-3.38;100.00;98121.44;5038612;28;19945;-64
2023/02/27 02:41:34;;;;;;;;;;;-2.50;99.90;;;-3.41;100.00;98119.69;5037973;28;19936;-64
2023/02/27 02:44:23;;;;;;;;;;;-2.50;99.90;;;-3.44;100.00;98117.09;5036143;28;19929;-64
2023/02/27 02:47:19;;;;;;;;;;;-2.50;99.90;;;-3.45;100.00;98110.31;5040467;28;20012;-63
2023/02/27 02:49:55;;;;;;;;;;;-2.50;99.90;;;-3.44;100.00;98108.66;5034781;28;20024;-63
2023/02/27 02:52:27;;;;;;;;;;;-2.50;99.90;;;-3.44;100.00;98116.25;5039770;28;19928;-64
2023/02/27 02:55:05;;;;;;;;;;;-2.50;99.90;;;-3.43;100.00;98110.34;5035512;28;20015;-63
2023/02/27 02:57:39;;;;;;;;;;;-2.50;99.90;;;-3.42;100.00;98112.03;5042415;28;20387;-63
2023/02/27 03:00:11;;;;;;;;;;;-2.50;99.90;;;-3.44;100.00;98117.09;5035988;28;19928;-64
2023/02/27 03:02:43;;;;;;;;;;;-2.50;99.90;;;-3.50;100.00;98111.03;5027130;28;20019;-64
2023/02/27 03:05:21;;;;;;;;;;;-2.60;99.90;;;-3.58;100.00;98113.41;5039406;28;19929;-64
2023/02/27 03:08:01;;;;;;;;;;;-2.60;99.90;;;-3.51;100.00;98122.00;5039277;28;20565;-64
2023/02/27 03:10:48;;;;;;;;;;;-2.60;99.90;;;-3.59;100.00;98125.22;5034525;28;20434;-64
2023/02/27 03:13:36;;;;;;;;;;;-2.60;99.90;;;-3.57;100.00;98121.06;5035510;28;19929;-64
2023/02/27 03:16:15;;;;;;;;;;;-2.70;99.90;;;-3.58;100.00;98119.34;5039625;28;20503;-64
2023/02/27 03:18:57;;;;;;;;;;;-2.70;99.90;;;-3.62;100.00;98120.09;5037841;28;19928;-64
2023/02/27 03:21:29;;;;;;;;;;;-2.70;99.90;;;-3.58;100.00;98123.53;5035970;28;19944;-64
2023/02/27 03:23:59;;;;;;;;;;;-2.70;99.90;;;-3.60;100.00;98125.22;5038520;28;19925;-64
2023/02/27 03:26:32;;;;;;;;;;;-2.70;99.90;;;-3.62;100.00;98134.47;5035863;28;19932;-64
2023/02/27 03:29:10;;;;;;;;;;;-2.70;99.90;;;-3.59;100.00;98132.00;5040513;28;19932;-64
2023/02/27 03:31:47;;;;;;;;;;;-2.70;99.90;;;-3.59;100.00;98132.84;5045168;28;19929;-64
2023/02/27 03:34:19;;;;;;;;;;;-2.70;99.90;;;-3.67;100.00;98143.63;5048031;28;19936;-64
2023/02/27 03:36:52;;;;;;;;;;;-2.70;99.90;;;-3.68;100.00;98140.25;5056147;28;19929;-64
2023/02/27 03:39:26;;;;;;;;;;;-2.70;99.90;;;-3.70;100.00;98133.44;5045975;28;19934;-64
2023/02/27 03:42:02;;;;;;;;;;;-2.80;99.90;;;-3.67;100.00;98133.50;5040428;28;19932;-64
2023/02/27 03:44:57;;;;;;;;;;;-2.70;99.90;;;-3.68;100.00;98154.63;5039971;28;20520;-64
2023/02/27 03:47:24;;;;;;;;;;;-2.70;99.90;;;-3.69;100.00;98151.25;5032628;28;19929;-64
2023/02/27 03:49:51;;;;;;;;;;;-2.70;99.90;;;-3.66;100.00;98151.28;5040864;28;20290;-64
2023/02/27 03:52:19;;;;;;;;;;;-2.80;99.90;;;-3.65;100.00;98154.69;5023054;28;19993;-64
2023/02/27 03:54:52;;;;;;;;;;;-2.70;99.90;;;-3.67;100.00;98161.41;5044067;28;19929;-64
2023/02/27 03:57:19;;;;;;;;;;;-2.70;99.90;;;-3.67;100.00;98156.31;5047484;28;19989;-64
2023/02/27 03:59:46;;;;;;;;;;;-2.80;99.90;;;-3.68;100.00;98159.69;5040312;28;19928;-64
2023/02/27 04:02:13;;;;;;;;;;;-2.80;99.90;;;-3.71;100.00;98157.94;5040639;28;19936;-64
2023/02/27 04:04:40;;;;;;;;;;;-2.80;99.90;;;-3.70;100.00;98164.72;5042061;28;20297;-63
2023/02/27 04:07:23;;;;;;;;;;;-2.80;99.90;;;-3.72;100.00;98168.06;5042243;28;19936;-64
2023/02/27 04:09:50;;;;;;;;;;;-2.80;99.90;;;-3.77;100.00;98167.94;5038519;28;20026;-64
2023/02/27 04:12:28;;;;;;;;;;;-2.80;99.90;;;-3.71;100.00;98163.03;5040792;28;19935;-64
2023/02/27 04:15:23;;;;;;;;;;;-2.80;99.90;;;-3.74;100.00;98165.50;5045153;28;20466;-64
2023/02/27 04:17:54;;;;;;;;;;;-2.80;99.90;;;-3.74;100.00;98165.50;5037843;28;20033;-64
2023/02/27 04:21:06;;;;;;;;;;;-2.80;99.90;;;-3.72;100.00;98162.97;5040093;28;19925;-64
2023/02/27 04:23:36;;;;;;;;;;;-2.90;99.90;;;-3.77;100.00;98170.47;4967686;28;19929;-63
2023/02/27 04:26:21;;;;;;;;;;;-2.90;99.90;;;-3.79;100.00;98167.03;5023471;28;19940;-64
2023/02/27 04:29:09;;;;;;;;;;;-2.90;99.90;;;-3.76;100.00;98163.72;5040720;28;19935;-64
2023/02/27 04:31:54;;;;;;;;;;;-2.90;99.90;;;-3.80;100.00;98175.50;5041925;28;19939;-64
2023/02/27 04:34:27;;;;;;;;;;;-2.90;99.90;;;-3.80;100.00;98178.03;5040971;28;19929;-62
2023/02/27 04:37:00;;;;;;;;;;;-2.90;99.90;;;-3.87;100.00;98179.56;5040131;28;19936;-65
2023/02/27 04:39:38;;;;;;;;;;;-2.90;99.90;;;-3.77;100.00;98178.09;5043785;28;19955;-64
2023/02/27 04:42:10;;;;;;;;;;;-2.90;99.90;;;-3.82;100.00;98185.59;5043844;28;19951;-64
2023/02/27 04:44:38;;;;;;;;;;;-2.90;99.90;;;-3.79;100.00;98187.34;5026417;28;19935;-65
2023/02/27 04:47:06;;;;;;;;;;;-2.90;99.90;;;-3.81;100.00;98189.88;5056615;28;19925;-64
2023/02/27 04:50:08;;;;;;;;;;;-2.80;99.90;;;-3.81;100.00;98197.47;5037684;28;20038;-64
2023/02/27 04:52:38;;;;;;;;;;;-2.90;99.90;;;-3.86;100.00;98195.63;4972323;28;19934;-64
2023/02/27 04:55:20;;;;;;;;;;;-2.90;99.90;;;-3.89;100.00;98201.50;5026878;28;19929;-65
2023/02/27 04:57:53;;;;;;;;;;;-2.90;99.90;;;-3.89;100.00;98196.41;5044651;28;19928;-63
2023/02/27 05:00:23;;;;;;;;;;;-3.00;99.90;;;-3.90;100.00;98203.97;5041614;28;20390;-64
2023/02/27 05:02:57;;;;;;;;;;;-3.00;99.90;;;-4.04;100.00;98202.00;5041888;28;19928;-64
2023/02/27 05:05:26;;;;;;;;;;;-3.10;99.90;;;-4.04;100.00;98198.56;5024773;28;19926;-64
2023/02/27 05:07:58;;;;;;;;;;;-3.10;99.90;;;-3.98;100.00;98202.94;5044244;28;20015;-64
2023/02/27 05:10:33;;;;;;;;;;;-3.10;99.90;;;-3.90;100.00;98207.41;5038259;28;19935;-64
2023/02/27 05:13:04;;;;;;;;;;;-3.00;99.90;;;-3.97;100.00;98202.13;5037505;28;19936;-63
2023/02/27 05:15:36;;;;;;;;;;;-3.00;99.90;;;-4.01;100.00;98208.81;5041250;28;20387;-65
2023/02/27 05:18:06;;;;;;;;;;;-3.00;99.90;;;-3.96;100.00;98202.16;5043828;28;19936;-64
2023/02/27 05:20:52;;;;;;;;;;;-3.00;99.90;;;-3.98;100.00;98210.56;5036182;28;19932;-65
2023/02/27 05:23:31;;;;;;;;;;;-3.10;99.90;;;-4.03;100.00;98205.38;5035458;28;20694;-64
2023/02/27 05:26:03;;;;;;;;;;;-3.10;99.90;;;-4.03;100.00;98205.38;5036977;28;19965;-64
2023/02/27 05:28:35;;;;;;;;;;;-3.10;99.90;;;-4.06;100.00;98193.47;5038642;28;19951;-64
2023/02/27 05:31:23;;;;;;;;;;;-3.10;99.90;;;-4.13;100.00;98203.41;5041046;28;19936;-64
2023/02/27 05:34:05;;;;;;;;;;;-3.10;99.90;;;-4.04;100.00;98204.53;5034412;28;19983;-64
2023/02/27 05:36:45;;;;;;;;;;;-3.20;99.90;;;-4.10;100.00;98204.34;5037537;28;19929;-64
2023/02/27 05:39:14;;;;;;;;;;;-3.20;99.90;;;-4.15;100.00;98203.38;5034342;28;19935;-64
2023/02/27 05:41:47;;;;;;;;;;;-3.20;99.90;;;-4.13;100.00;98203.41;5042977;28;19935;-64
2023/02/27 05:44:17;;;;;;;;;;;-3.20;99.90;;;-4.22;100.00;98215.03;5021725;28;19931;-64
2023/02/27 05:46:53;;;;;;;;;;;-3.30;99.90;;;-4.18;100.00;98207.50;5038435;28;19933;-64
2023/02/27 05:49:24;;;;;;;;;;;-3.30;99.90;;;-4.23;100.00;98215.00;5042619;28;19925;-64
2023/02/27 05:51:54;;;;;;;;;;;-3.30;99.90;;;-4.14;100.00;98215.22;5035309;28;19925;-64
2023/02/27 05:54:32;;;;;;;;;;;-3.30;99.90;;;-4.24;100.00;98213.28;5041806;28;19932;-64
2023/02/27 05:57:00;;;;;;;;;;;-3.20;99.90;;;-4.19;100.00;98218.47;5035583;28;19929;-64
2023/02/27 05:59:34;;;;;;;;;;;-3.30;99.90;;;-4.28;100.00;98211.50;5041040;28;19936;-64
2023/02/27 06:02:02;;;;;;;;;;;-3.30;99.90;;;-4.23;100.00;98212.47;5038831;28;19928;-64
2023/02/27 06:04:29;;;;;;;;;;;-3.30;99.90;;;-4.17;100.00;98217.69;5034287;28;20276;-64
2023/02/27 06:06:56;;;;;;;;;;;-3.20;99.90;;;-4.18;100.00;98220.19;5038410;28;19933;-64
2023/02/27 06:09:23;;;;;;;;;;;-3.30;99.90;;;-4.30;100.00;98216.50;5036307;28;19925;-65
2023/02/27 06:11:49;;;;;;;;;;;-3.30;99.90;;;-4.22;100.00;98224.31;5033865;28;19941;-64
2023/02/27 06:14:16;;;;;;;;;;;-3.30;99.90;;;-4.27;100.00;98225.88;5038029;28;20343;-64
2023/02/27 06:16:45;;;;;;;;;;;-3.40;99.90;;;-4.24;100.00;98219.22;5035649;28;19941;-64
2023/02/27 06:19:12;;;;;;;;;;;-3.30;99.90;;;-4.28;100.00;98226.69;5038168;28;19982;-64
2023/02/27 06:21:38;;;;;;;;;;;-3.40;99.90;;;-4.35;100.00;98228.22;5040313;28;19936;-64
2023/02/27 06:24:05;;;;;;;;;;;-3.40;99.90;;;-4.32;100.00;98227.44;5035733;28;19929;-64
2023/02/27 06:26:32;;;;;;;;;;;-3.40;99.90;;;-4.35;100.00;98234.97;5037961;28;19929;-64
2023/02/27 06:28:59;;;;;;;;;;;-3.40;99.90;;;-4.32;100.00;98245.16;5039432;28;20394;-64
2023/02/27 06:31:26;;;;;;;;;;;-3.40;99.90;;;-4.21;100.00;98241.25;5038342;28;19925;-65
2023/02/27 06:33:54;;;;;;;;;;;-3.30;99.90;;;-4.24;100.00;98241.19;5040300;28;20457;-64
2023/02/27 06:36:21;;;;;;;;;;;-3.30;99.90;;;-4.34;100.00;98252.72;5037085;28;19975;-64
2023/02/27 06:38:48;;;;;;;;;;;-3.30;99.90;;;-4.28;100.00;98247.81;5037131;28;19941;-64
2023/02/27 06:41:15;;;;;;;;;;;-3.30;99.90;;;-4.18;100.00;98261.59;5038036;28;20008;-64
2023/02/27 06:43:42;;;;;;;;;;;-3.30;99.90;;;-4.17;100.00;98263.34;5036927;28;20413;-64
2023/02/27 06:46:09;;;;;;;;;;;-3.30;99.90;;;-4.20;100.00;98263.22;5035133;28;20384;-64
2023/02/27 06:48:36;;;;;;;;;;;-3.30;99.90;;;-4.26;100.00;98266.47;5035529;28;19929;-64
2023/02/27 06:51:03;;;;;;;;;;;-3.20;99.90;;;-4.17;100.00;98276.00;5036586;28;19929;-64
2023/02/27 06:53:30;;;;;;;;;;;-3.20;99.90;;;-4.19;100.00;98269.19;5035028;28;19933;-65
2023/02/27 06:55:59;;;;;;;;;;;-3.20;99.90;;;-4.22;100.00;98272.47;5037925;28;19925;-65
2023/02/27 06:58:26;;;;;;;;;;;-3.20;99.90;;;-4.16;100.00;98272.63;5036121;28;20370;-64
2023/02/27 07:00:53;;;;;;;;;;;-3.20;99.90;;;-4.15;100.00;98281.97;5039741;28;20015;-65
2023/02/27 07:03:20;;;;;;;;;;;-3.10;99.90;;;-4.14;100.00;98277.75;5037019;28;19929;-64
2023/02/27 07:05:47;;;;;;;;;;;-3.10;99.90;;;-4.18;100.00;98281.03;5035758;28;20034;-65
2023/02/27 07:08:16;;;;;;;;;;;-3.10;99.90;;;-4.07;100.00;98283.03;5036645;28;19936;-64
2023/02/27 07:10:45;;;;;;;;;;;-3.10;99.90;;;-4.04;100.00;98279.69;5038601;28;19948;-64
2023/02/27 07:13:13;;;;;;;;;;;-3.00;99.90;;;-4.05;100.00;98290.69;5019733;28;19929;-67
2023/02/27 07:15:46;;;;;;;;;;;-3.00;99.90;;;-3.93;100.00;98288.44;5036994;28;28443;-66
2023/02/27 07:18:13;;;;;;;;;;;-3.00;99.90;;;-3.90;100.00;98292.75;5036570;28;19924;-63
2023/02/27 07:20:40;;;;;;;;;;;-2.90;99.90;;;-3.89;100.00;98297.88;5036785;28;19925;-64
2023/02/27 07:23:06;;;;;;;;;;;-2.90;99.90;;;-3.80;100.00;98293.03;5040114;28;19925;-64
2023/02/27 07:25:33;;;;;;;;;;;-2.80;99.90;;;-3.83;100.00;98292.06;5037738;28;19984;-65
2023/02/27 07:28:00;;;;;;;;;;;-2.80;99.90;;;-3.79;100.00;98298.94;5036003;28;19930;-64
2023/02/27 07:30:29;;;;;;;;;;;-2.70;99.90;;;-3.73;100.00;98290.66;5037399;28;19925;-65
2023/02/27 07:32:56;;;;;;;;;;;-2.70;99.90;;;-3.73;100.00;98293.19;5039423;28;20024;-65
2023/02/27 07:35:23;;;;;;;;;;;-2.70;99.90;;;-3.65;100.00;98292.56;5033375;28;19931;-65
2023/02/27 07:37:50;;;;;;;;;;;-2.60;99.90;;;-3.59;100.00;98279.16;5034966;28;19935;-63
2023/02/27 07:40:17;;;;;;;;;;;-2.60;99.90;;;-3.51;100.00;98298.00;5038066;28;19925;-65
2023/02/27 07:42:47;;;;;;;;;;;-2.50;99.90;;;-3.44;100.00;98283.78;5035082;28;19939;-65
2023/02/27 07:45:14;;;;;;;;;;;-2.40;99.90;;;-3.36;100.00;98279.72;5030597;28;19932;-65
2023/02/27 07:47:41;;;;;;;;;;;-2.40;99.90;;;-3.31;100.00;98267.13;5042104;28;19929;-65
2023/02/27 07:50:12;;;;;;;;;;;-2.30;99.90;;;-3.26;100.00;98279.13;5035605;28;20406;-65
2023/02/27 07:52:40;;;;;;;;;;;-2.20;99.90;;;-3.15;100.00;98292.03;5038480;28;20063;-65
2023/02/27 07:55:08;;;;;;;;;;;-2.20;99.90;;;-3.14;100.00;98287.84;5034198;28;19929;-65
2023/02/27 07:57:35;;;;;;;;;;;-2.10;99.90;;;-2.65;100.00;98283.84;5034423;28;19929;-66
2023/02/27 08:00:06;;;;;;;;;;;-1.90;99.90;;;-2.12;100.00;98279.81;5037282;28;19929;-66
2023/02/27 08:02:33;;;;;;;;;;;-1.50;99.90;;;-1.50;100.00;98279.22;5039523;28;19929;-65
2023/02/27 08:04:59;;;;;;;;;;;-0.80;99.90;;;-1.18;100.00;98278.03;5036127;28;20071;-65
2023/02/27 08:07:26;;;;;;;;;;;-0.40;99.90;;;-0.92;100.00;98266.50;5037499;28;20414;-66
2023/02/27 08:09:53;;;;;;;;;;;-0.20;99.90;;;-0.29;100.00;98267.31;5037716;28;19925;-65
2023/02/27 08:12:21;;;;;;;;;;;0.40;99.90;;;-0.60;100.00;98270.31;5038328;28;19975;-66
2023/02/27 08:14:48;;;;;;;;;;;0.40;99.90;;;-0.38;100.00;98266.34;5037565;28;19956;-66
2023/02/27 08:17:15;;;;;;;;;;;0.60;99.90;;;-0.47;100.00;98252.66;5044337;28;20340;-63
2023/02/27 08:19:42;;;;;;;;;;;;;;;-0.27;100.00;98252.88;5039520;28;19939;-63
2023/02/27 08:22:10;;;;;;;;;;;0.70;99.90;;;-0.24;100.00;98255.47;5038760;28;19929;-64
2023/02/27 08:24:40;;;;;;;;;;;0.80;99.90;;;-0.16;100.00;98254.69;5041807;28;20291;-64
2023/02/27 08:27:07;;;;;;;;;;;0.90;99.90;;;-0.10;100.00;98253.06;5040208;28;19935;-64
2023/02/27 08:29:34;;;;;;;;;;;1.20;99.90;;;-0.21;100.00;98244.44;5037725;28;19935;-64
2023/02/27 08:32:03;;;;;;;;;;;0.80;99.90;;;0.16;100.00;98268.66;5040631;28;19929;-64
2023/02/27 08:34:30;;;;;;;;;;;1.40;99.90;;;0.13;100.00;98249.88;5039877;28;20434;-64
2023/02/27 08:36:57;;;;;;;;;;;1.30;99.90;;;0.04;100.00;98253.19;5038212;28;20011;-64
2023/02/27 08:39:24;;;;;;;;;;;1.30;99.90;;;0.26;100.00;98256.81;5038949;28;19925;-64
2023/02/27 08:41:51;;;;;;;;;;;1.60;99.90;;;0.16;100.00;98273.75;5043114;28;19951;-64
2023/02/27 08:44:18;;;;;;;;;;;1.30;99.90;;;0.55;100.00;98266.44;5039826;28;20295;-64
2023/02/27 08:46:45;;;;;;;;;;;1.40;99.90;;;0.70;100.00;98263.16;5041970;28;19932;-64
2023/02/27 08:49:13;;;;;;;;;;;;;;;1.08;100.00;98273.63;5040577;28;19933;-64
2023/02/27 08:51:39;;;;;;;;;;;2.20;99.90;;;0.56;100.00;98274.09;5043659;28;19932;-65
2023/02/27 08:54:06;;;;;;;;;;;2.00;99.90;;;0.48;100.00;98262.97;5025430;28;19933;-64
2023/02/27 08:56:33;;;;;;;;;;;1.80;99.90;;;0.83;100.00;98268.34;5026418;28;19929;-64
2023/02/27 08:59:01;;;;;;;;;;;1.90;99.90;;;1.46;100.00;98271.31;5043934;28;19931;-64
2023/02/27 09:01:33;;;;;;;;;;;2.40;99.90;;;0.47;100.00;98274.03;4995156;28;19925;-65
2023/02/27 09:04:03;;;;;;;;;;;1.70;99.90;;;0.17;100.00;98275.44;5017052;28;19964;-64
2023/02/27 09:06:31;;;;;;;;;;;1.50;99.90;;;0.31;100.00;98279.84;5036306;28;20418;-63
2023/02/27 09:09:34;;;;;;;;;;;1.20;99.90;;;-0.06;100.00;98276.94;5036829;27;11007;-64
2023/02/27 09:12:01;;;;;;;;;;;0.90;99.90;;;-0.12;100.00;98275.16;5088167;28;1587;-64
2023/02/27 09:14:28;;;;;;;;;;;0.90;99.90;;;-0.12;100.00;98280.25;5056657;28;1387;-64
2023/02/27 09:16:55;;;;;;;;;;;0.70;99.90;;;-0.10;100.00;98278.56;5057012;28;1474;-64
2023/02/27 09:19:22;;;;;;;;;;;0.90;99.90;;;-0.11;100.00;98283.69;5058638;28;1544;-64
2023/02/27 09:21:48;;;;;;;;;;;0.70;99.90;;;-0.56;100.00;98289.94;5059584;28;1652;-64
2023/02/27 09:24:15;;;;;;;;;;;0.50;99.90;;;-0.53;100.00;98300.16;5061278;28;1406;-64
2023/02/27 09:26:47;;;;;;;;;;;0.50;99.90;;;-0.45;100.00;98296.88;5057827;28;1399;-64
2023/02/27 09:29:14;;;;;;;;;;;0.50;99.90;;;-0.53;100.00;98295.91;5057377;28;1906;-64
2023/02/27 09:31:42;;;;;;;;;;;0.50;99.90;;;-0.55;100.00;98299.28;5060262;28;1515;-64
2023/02/27 09:34:08;;;;;;;;;;;0.60;99.90;;;-0.54;100.00;98301.00;5058171;28;1651;-64
2023/02/27 09:36:35;;;;;;;;;;;0.50;99.90;;;-0.60;100.00;98293.28;5058143;28;1355;-64
2023/02/27 09:39:02;;;;;;;;;;;0.40;99.90;;;-0.58;100.00;98302.66;5051704;28;1635;-64
2023/02/27 09:41:41;;;;;;;;;;;0.40;99.90;;;-0.60;100.00;98311.13;5059067;28;1637;-64
2023/02/27 09:44:43;;;;;;;;;;;0.40;99.90;;;-0.55;100.00;98310.34;5059389;28;1489;-63
2023/02/27 09:47:24;;;;;;;;;;;0.40;99.90;;;-0.56;100.00;98316.28;5055071;28;1446;-63
2023/02/27 09:50:05;;;;;;;;;;;0.40;99.90;;;-0.51;100.00;98324.84;5051889;28;1747;-63
2023/02/27 09:52:35;;;;;;;;;;;0.50;99.90;;;-0.64;100.00;98307.66;5055034;28;1525;-63
2023/02/27 09:55:06;;;;;;;;;;;0.40;99.90;;;-0.61;100.00;98323.03;5057910;28;1387;-63
2023/02/27 09:57:38;;;;;;;;;;;0.50;99.90;;;-0.59;100.00;98317.91;5057957;28;1366;-66
2023/02/27 10:00:30;;;;;;;;;;;0.50;99.90;;;-0.72;100.00;98312.66;5059180;28;1598;-63
2023/02/27 10:03:15;;;;;;;;;;;0.40;99.90;;;-0.47;100.00;98323.19;5054663;28;1387;-64
2023/02/27 10:06:16;;;;;;;;;;;0.50;99.90;;;-0.23;100.00;98326.06;5050358;28;1700;-64
2023/02/27 10:09:07;;;;;;;;;;;0.60;99.90;;;0.13;100.00;98321.34;5060081;28;1942;-64
2023/02/27 10:12:02;;;;;;;;;;;0.90;99.90;;;-0.12;100.00;98321.06;5061105;28;1414;-64
2023/02/27 10:14:39;;;;;;;;;;;0.90;99.90;;;-0.25;100.00;98330.28;5055911;28;1590;-64
2023/02/27 10:17:13;;;;;;;;;;;0.90;99.90;;;-0.22;100.00;98325.22;5057065;28;1383;-64
2023/02/27 10:19:43;;;;;;;;;;;0.90;99.90;;;-0.08;100.00;98330.50;5048447;28;1751;-64
2023/02/27 10:22:13;;;;;;;;;;;0.80;99.90;;;-0.37;100.00;98336.94;5043908;28;1426;-64
2023/02/27 10:24:46;;;;;;;;;;;0.80;99.90;;;-0.19;100.00;98341.41;5047825;28;1375;-63
2023/02/27 10:27:17;;;;;;;;;;;0.80;99.90;;;-0.26;100.00;98343.88;5061659;28;1391;-64
2023/02/27 10:29:44;;;;;;;;;;;0.80;99.90;;;-0.34;100.00;98335.28;5044952;28;1906;-64
2023/02/27 10:32:11;;;;;;;;;;;0.80;99.90;;;-0.23;100.00;98343.94;5046710;28;1390;-65
2023/02/27 10:34:40;;;;;;;;;;;0.80;99.90;;;-0.40;100.00;98344.53;5046106;28;1398;-66
2023/02/27 10:37:11;;;;;;;;;;;0.70;99.90;;;-0.43;100.00;98350.47;5063116;28;1381;-65
2023/02/27 10:39:45;;;;;;;;;;;0.70;99.90;;;-0.17;100.00;98347.38;5045215;28;1403;-65
2023/02/27 10:42:14;;;;;;;;;;;0.70;99.90;;;-0.22;100.00;98348.19;5056888;28;1359;-65
2023/02/27 10:44:41;;;;;;;;;;;0.80;99.90;;;-0.19;100.00;98360.13;5046143;28;1356;-65
2023/02/27 10:47:16;;;;;;;;;;;0.90;99.90;;;-0.25;100.00;98358.34;5041314;28;1494;-65
2023/02/27 10:49:43;;;;;;;;;;;0.80;99.90;;;-0.10;100.00;98344.06;5046535;28;1906;-65
2023/02/27 10:52:12;;;;;;;;;;;0.90;99.90;;;0.09;100.00;98352.78;5044828;28;1420;-65
2023/02/27 10:54:40;;;;;;;;;;;1.10;99.90;;;0.02;100.00;98361.22;5042318;28;1891;-65
2023/02/27 10:57:22;;;;;;;;;;;1.10;99.90;;;-0.05;100.00;98350.06;5046318;28;1347;-65
2023/02/27 10:59:55;;;;;;;;;;;1.00;99.90;;;-0.09;100.00;98359.41;5045996;28;1585;-65
2023/02/27 11:02:25;;;;;;;;;;;1.00;99.90;;;-0.09;100.00;98363.63;5047942;28;1799;-64
2023/02/27 11:04:54;;;;;;;;;;;1.00;99.90;;;0.07;100.00;98346.81;5043469;28;2037;-65
2023/02/27 11:07:37;;;;;;;;;;;1.00;99.90;;;0.08;100.00;98338.34;5046142;28;1481;-65
2023/02/27 11:10:13;;;;;;;;;;;1.10;99.90;;;0.22;100.00;98351.25;5041155;28;1435;-65
2023/02/27 11:12:42;;;;;;;;;;;1.20;99.90;;;0.36;100.00;98339.47;5044273;28;1403;-65
2023/02/27 11:15:15;;;;;;;;;;;1.30;99.90;;;0.53;100.00;98343.06;5043689;28;1418;-65
2023/02/27 11:17:42;;;;;;;;;;;1.40;99.90;;;0.53;100.00;98345.63;5042027;28;1396;-65
2023/02/27 11:20:49;;;;;;;;;;;1.50;99.90;;;0.80;100.00;98339.06;5042639;28;1384;-65
2023/02/27 11:23:19;;;;;;;;;;;1.60;99.90;;;0.82;100.00;98342.44;4985389;28;1406;-64
2023/02/27 11:25:47;;;;;;;;;;;1.80;99.90;;;0.47;100.00;98324.25;5039009;28;1461;-65
2023/02/27 11:28:24;;;;;;;;;;;1.60;99.90;;;0.41;100.00;98307.16;5041921;28;1902;-65
2023/02/27 11:30:58;;;;;;;;;;;1.60;99.90;;;0.54;100.00;98331.97;5043302;28;1860;-65
2023/02/27 11:33:27;;;;;;;;;;;1.60;99.90;;;0.49;100.00;98325.13;5041593;28;1502;-65
2023/02/27 11:35:55;;;;;;;;;;;1.50;99.90;;;0.53;100.00;98326.88;5043066;28;1372;-65